sensor_id;sensor_type;location;lat;lon;timestamp;pressure;altitude;pressure_sealevel;temperature;humidity
84316;BME280;74496;52.236;5.164;2024-02-28T00:00:41;101977.09;;;5.94;75.73
84316;BME280;74496;52.236;5.164;2024-02-28T00:03:07;101980.25;;;5.83;74.90
84316;BME280;74496;52.236;5.164;2024-02-28T00:05:35;101978.84;;;5.76;75.62
84316;BME280;74496;52.236;5.164;2024-02-28T00:08:02;101978.50;;;5.66;76.98
84316;BME280;74496;52.236;5.164;2024-02-28T00:10:29;101975.25;;;5.61;76.20
84316;BME280;74496;52.236;5.164;2024-02-28T00:12:56;101979.81;;;5.57;76.67
84316;BME280;74496;52.236;5.164;2024-02-28T00:15:23;101968.94;;;5.48;75.39
84316;BME280;74496;52.236;5.164;2024-02-28T00:17:52;101968.66;;;5.36;76.65
84316;BME280;74496;52.236;5.164;2024-02-28T00:20:18;101969.69;;;5.32;76.46
84316;BME280;74496;52.236;5.164;2024-02-28T00:22:47;101966.31;;;5.30;77.47
84316;BME280;74496;52.236;5.164;2024-02-28T00:25:14;101967.63;;;5.22;77.16
84316;BME280;74496;52.236;5.164;2024-02-28T00:27:41;101968.84;;;5.14;77.94
84316;BME280;74496;52.236;5.164;2024-02-28T00:30:08;101972.44;;;5.12;76.33
84316;BME280;74496;52.236;5.164;2024-02-28T00:32:35;101982.44;;;5.04;77.48
84316;BME280;74496;52.236;5.164;2024-02-28T00:35:02;101977.38;;;5.01;78.48
84316;BME280;74496;52.236;5.164;2024-02-28T00:37:29;101981.75;;;5.00;77.30
84316;BME280;74496;52.236;5.164;2024-02-28T00:39:58;101981.16;;;4.93;77.12
84316;BME280;74496;52.236;5.164;2024-02-28T00:42:24;101976.25;;;4.87;78.67
84316;BME280;74496;52.236;5.164;2024-02-28T00:44:52;101979.00;;;4.84;78.90
84316;BME280;74496;52.236;5.164;2024-02-28T00:47:19;101979.84;;;4.85;78.43
84316;BME280;74496;52.236;5.164;2024-02-28T00:49:46;101977.44;;;4.80;78.77
84316;BME280;74496;52.236;5.164;2024-02-28T00:52:12;101975.00;;;4.77;78.65
84316;BME280;74496;52.236;5.164;2024-02-28T00:54:39;101975.00;;;4.77;76.94
84316;BME280;74496;52.236;5.164;2024-02-28T00:57:07;101970.75;;;4.75;77.66
84316;BME280;74496;52.236;5.164;2024-02-28T00:59:34;101975.47;;;4.66;78.92
84316;BME280;74496;52.236;5.164;2024-02-28T01:02:01;101971.31;;;4.62;78.53
84316;BME280;74496;52.236;5.164;2024-02-28T01:04:28;101970.47;;;4.62;78.14
84316;BME280;74496;52.236;5.164;2024-02-28T01:06:55;101968.56;;;4.65;77.40
84316;BME280;74496;52.236;5.164;2024-02-28T01:09:22;101960.09;;;4.60;77.22
84316;BME280;74496;52.236;5.164;2024-02-28T01:11:49;101964.97;;;4.68;78.46
84316;BME280;74496;52.236;5.164;2024-02-28T01:14:17;101975.47;;;4.66;77.38
84316;BME280;74496;52.236;5.164;2024-02-28T01:16:44;101971.25;;;4.64;78.63
84316;BME280;74496;52.236;5.164;2024-02-28T01:19:11;101972.13;;;4.64;77.95
84316;BME280;74496;52.236;5.164;2024-02-28T01:21:38;101971.31;;;4.62;77.85
84316;BME280;74496;52.236;5.164;2024-02-28T01:24:05;101971.25;;;4.64;78.18
84316;BME280;74496;52.236;5.164;2024-02-28T01:26:32;101975.72;;;4.62;78.71
84316;BME280;74496;52.236;5.164;2024-02-28T01:28:58;101964.97;;;4.68;77.83
84316;BME280;74496;52.236;5.164;2024-02-28T01:31:26;101967.72;;;4.65;76.94
84316;BME280;74496;52.236;5.164;2024-02-28T01:33:53;101969.50;;;4.64;76.53
84316;BME280;74496;52.236;5.164;2024-02-28T01:36:21;101956.63;;;4.60;76.46
84316;BME280;74496;52.236;5.164;2024-02-28T01:38:48;101956.72;;;4.58;77.81
84316;BME280;74496;52.236;5.164;2024-02-28T01:41:14;101966.00;;;4.64;77.30
84316;BME280;74496;52.236;5.164;2024-02-28T01:43:41;101959.31;;;4.58;78.16
84316;BME280;74496;52.236;5.164;2024-02-28T01:46:20;101963.22;;;4.50;78.05
84316;BME280;74496;52.236;5.164;2024-02-28T01:48:49;101965.69;;;4.53;78.44
84316;BME280;74496;52.236;5.164;2024-02-28T01:51:16;101957.13;;;4.49;78.60
84316;BME280;74496;52.236;5.164;2024-02-28T01:53:44;101960.44;;;4.53;78.18
84316;BME280;74496;52.236;5.164;2024-02-28T01:56:11;101951.63;;;4.55;77.64
84316;BME280;74496;52.236;5.164;2024-02-28T01:58:40;101958.50;;;4.58;77.90
84316;BME280;74496;52.236;5.164;2024-02-28T02:01:07;101952.34;;;4.59;77.95
84316;BME280;74496;52.236;5.164;2024-02-28T02:03:35;101954.84;;;4.60;78.83
84316;BME280;74496;52.236;5.164;2024-02-28T02:06:04;101950.41;;;4.62;79.08
84316;BME280;74496;52.236;5.164;2024-02-28T02:08:31;101960.78;;;4.64;78.29
84316;BME280;74496;52.236;5.164;2024-02-28T02:10:59;101956.44;;;4.64;78.23
84316;BME280;74496;52.236;5.164;2024-02-28T02:13:25;101957.19;;;4.66;78.33
84316;BME280;74496;52.236;5.164;2024-02-28T02:15:52;101951.91;;;4.68;78.11
84316;BME280;74496;52.236;5.164;2024-02-28T02:18:19;101963.25;;;4.67;78.83
84316;BME280;74496;52.236;5.164;2024-02-28T02:20:49;101958.13;;;4.65;79.51
84316;BME280;74496;52.236;5.164;2024-02-28T02:23:17;101957.34;;;4.63;79.71
84316;BME280;74496;52.236;5.164;2024-02-28T02:25:44;101956.16;;;4.70;79.36
84316;BME280;74496;52.236;5.164;2024-02-28T02:28:11;101959.16;;;4.80;78.11
84316;BME280;74496;52.236;5.164;2024-02-28T02:30:38;101962.41;;;4.85;78.90
84316;BME280;74496;52.236;5.164;2024-02-28T02:33:05;101953.56;;;4.88;78.97
84316;BME280;74496;52.236;5.164;2024-02-28T02:35:32;101959.34;;;4.94;77.97
84316;BME280;74496;52.236;5.164;2024-02-28T02:37:59;101958.03;;;5.03;77.43
84316;BME280;74496;52.236;5.164;2024-02-28T02:40:27;101960.75;;;5.02;78.31
84316;BME280;74496;52.236;5.164;2024-02-28T02:42:54;101948.38;;;5.05;78.46
84316;BME280;74496;52.236;5.164;2024-02-28T02:45:21;101950.59;;;5.13;77.19
84316;BME280;74496;52.236;5.164;2024-02-28T02:47:47;101947.53;;;5.22;77.42
84316;BME280;74496;52.236;5.164;2024-02-28T02:50:14;101943.16;;;5.23;76.76
84316;BME280;74496;52.236;5.164;2024-02-28T02:52:41;101948.84;;;5.13;76.78
84316;BME280;74496;52.236;5.164;2024-02-28T02:55:08;101949.84;;;5.28;76.46
84316;BME280;74496;52.236;5.164;2024-02-28T02:57:36;101948.72;;;5.34;76.07
84316;BME280;74496;52.236;5.164;2024-02-28T03:00:03;101948.25;;;5.43;75.99
84316;BME280;74496;52.236;5.164;2024-02-28T03:02:31;101940.59;;;5.56;75.79
84316;BME280;74496;52.236;5.164;2024-02-28T03:04:58;101939.91;;;5.70;75.04
84316;BME280;74496;52.236;5.164;2024-02-28T03:07:24;101944.38;;;5.68;75.36
84316;BME280;74496;52.236;5.164;2024-02-28T03:09:51;101936.88;;;5.95;74.01
84316;BME280;74496;52.236;5.164;2024-02-28T03:12:18;101934.19;;;5.79;75.01
84316;BME280;74496;52.236;5.164;2024-02-28T03:14:46;101939.81;;;5.71;75.34
84316;BME280;74496;52.236;5.164;2024-02-28T03:17:12;101942.91;;;5.79;74.38
84316;BME280;74496;52.236;5.164;2024-02-28T03:19:40;101940.88;;;5.84;74.55
84316;BME280;74496;52.236;5.164;2024-02-28T03:22:07;101934.34;;;5.93;74.23
84316;BME280;74496;52.236;5.164;2024-02-28T03:24:34;101939.50;;;5.95;74.02
84316;BME280;74496;52.236;5.164;2024-02-28T03:27:00;101941.22;;;5.96;74.25
84316;BME280;74496;52.236;5.164;2024-02-28T03:29:27;101941.91;;;5.99;74.03
84316;BME280;74496;52.236;5.164;2024-02-28T03:31:55;101935.88;;;5.97;74.54
84316;BME280;74496;52.236;5.164;2024-02-28T03:34:22;101935.78;;;5.99;74.27
84316;BME280;74496;52.236;5.164;2024-02-28T03:36:49;101938.50;;;5.97;74.69
84316;BME280;74496;52.236;5.164;2024-02-28T03:39:16;101938.91;;;6.05;73.91
84316;BME280;74496;52.236;5.164;2024-02-28T03:41:43;101937.94;;;6.08;73.90
84316;BME280;74496;52.236;5.164;2024-02-28T03:44:10;101934.13;;;6.14;73.48
84316;BME280;74496;52.236;5.164;2024-02-28T03:46:36;101932.28;;;6.16;73.53
84316;BME280;74496;52.236;5.164;2024-02-28T03:49:04;101935.06;;;6.13;73.77
84316;BME280;74496;52.236;5.164;2024-02-28T03:51:31;101940.06;;;6.17;73.92
84316;BME280;74496;52.236;5.164;2024-02-28T03:53:58;101944.56;;;6.31;73.37
84316;BME280;74496;52.236;5.164;2024-02-28T03:56:26;101945.56;;;6.28;74.07
84316;BME280;74496;52.236;5.164;2024-02-28T03:58:55;101939.91;;;6.36;72.96
84316;BME280;74496;52.236;5.164;2024-02-28T04:01:22;101941.09;;;6.30;73.89
84316;BME280;74496;52.236;5.164;2024-02-28T04:03:49;101940.31;;;6.28;73.62
84316;BME280;74496;52.236;5.164;2024-02-28T04:06:17;101945.22;;;6.34;73.68
84316;BME280;74496;52.236;5.164;2024-02-28T04:08:43;101944.47;;;6.32;73.98
84316;BME280;74496;52.236;5.164;2024-02-28T04:11:10;101950.56;;;6.33;73.73
84316;BME280;74496;52.236;5.164;2024-02-28T04:13:37;101943.81;;;6.29;74.38
84316;BME280;74496;52.236;5.164;2024-02-28T04:16:03;101946.16;;;6.33;73.23
84316;BME280;74496;52.236;5.164;2024-02-28T04:18:30;101954.81;;;6.36;73.62
84316;BME280;74496;52.236;5.164;2024-02-28T04:20:57;101948.72;;;6.35;73.79
84316;BME280;74496;52.236;5.164;2024-02-28T04:23:25;101953.25;;;6.31;74.60
84316;BME280;74496;52.236;5.164;2024-02-28T04:25:52;101950.41;;;6.36;74.06
84316;BME280;74496;52.236;5.164;2024-02-28T04:28:19;101952.25;;;6.34;73.95
84316;BME280;74496;52.236;5.164;2024-02-28T04:30:45;101949.56;;;6.36;73.94
84316;BME280;74496;52.236;5.164;2024-02-28T04:33:12;101953.78;;;6.38;74.16
84316;BME280;74496;52.236;5.164;2024-02-28T04:35:39;101954.19;;;6.30;74.57
84316;BME280;74496;52.236;5.164;2024-02-28T04:38:05;101949.22;;;6.42;74.35
84316;BME280;74496;52.236;5.164;2024-02-28T04:40:33;101960.63;;;6.41;74.53
84316;BME280;74496;52.236;5.164;2024-02-28T04:43:01;101959.03;;;6.54;74.25
84316;BME280;74496;52.236;5.164;2024-02-28T04:45:28;101969.78;;;6.49;74.10
84316;BME280;74496;52.236;5.164;2024-02-28T04:47:54;101976.69;;;6.50;74.47
84316;BME280;74496;52.236;5.164;2024-02-28T04:50:22;101974.00;;;6.52;73.78
84316;BME280;74496;52.236;5.164;2024-02-28T04:52:49;101975.59;;;6.54;73.91
84316;BME280;74496;52.236;5.164;2024-02-28T04:55:16;101969.78;;;6.49;74.21
84316;BME280;74496;52.236;5.164;2024-02-28T04:57:44;101971.91;;;6.58;73.92
84316;BME280;74496;52.236;5.164;2024-02-28T05:00:11;101968.50;;;6.56;73.67
84316;BME280;74496;52.236;5.164;2024-02-28T05:02:38;101968.59;;;6.55;74.20
84316;BME280;74496;52.236;5.164;2024-02-28T05:05:05;101966.88;;;6.54;74.23
84316;BME280;74496;52.236;5.164;2024-02-28T05:07:32;101970.03;;;6.61;74.38
84316;BME280;74496;52.236;5.164;2024-02-28T05:09:59;101968.41;;;6.58;74.62
84316;BME280;74496;52.236;5.164;2024-02-28T05:12:26;101966.31;;;6.65;73.72
84316;BME280;74496;52.236;5.164;2024-02-28T05:14:54;101968.16;;;6.63;73.71
84316;BME280;74496;52.236;5.164;2024-02-28T05:17:20;101968.25;;;6.61;74.35
84316;BME280;74496;52.236;5.164;2024-02-28T05:19:47;101972.97;;;6.70;74.09
84316;BME280;74496;52.236;5.164;2024-02-28T05:22:14;101966.13;;;6.68;74.24
84316;BME280;74496;52.236;5.164;2024-02-28T05:24:40;101967.91;;;6.67;74.57
84316;BME280;74496;52.236;5.164;2024-02-28T05:27:09;101967.75;;;6.70;74.35
84316;BME280;74496;52.236;5.164;2024-02-28T05:29:35;101972.91;;;6.72;74.38
84316;BME280;74496;52.236;5.164;2024-02-28T05:32:04;101970.19;;;6.73;74.64
84316;BME280;74496;52.236;5.164;2024-02-28T05:34:31;101968.41;;;6.58;74.33
84316;BME280;74496;52.236;5.164;2024-02-28T05:36:58;101963.44;;;6.69;74.69
84316;BME280;74496;52.236;5.164;2024-02-28T05:39:26;101963.66;;;6.80;74.24
84316;BME280;74496;52.236;5.164;2024-02-28T05:41:54;101967.84;;;6.85;74.71
84316;BME280;74496;52.236;5.164;2024-02-28T05:44:21;101964.44;;;6.82;73.80
84316;BME280;74496;52.236;5.164;2024-02-28T05:46:47;101963.59;;;6.82;73.86
84316;BME280;74496;52.236;5.164;2024-02-28T05:49:16;101964.72;;;6.78;74.36
84316;BME280;74496;52.236;5.164;2024-02-28T05:51:42;101976.56;;;6.85;74.20
84316;BME280;74496;52.236;5.164;2024-02-28T05:54:10;101975.00;;;6.81;74.14
84316;BME280;74496;52.236;5.164;2024-02-28T05:56:36;101967.06;;;6.82;74.24
84316;BME280;74496;52.236;5.164;2024-02-28T05:59:03;101973.59;;;6.91;nan
84316;BME280;74496;52.236;5.164;2024-02-28T06:01:30;101977.97;;;6.91;74.98
84316;BME280;74496;52.236;5.164;2024-02-28T06:03:56;101975.34;;;6.91;74.25
84316;BME280;74496;52.236;5.164;2024-02-28T06:06:24;101968.25;;;6.93;74.84
84316;BME280;74496;52.236;5.164;2024-02-28T06:08:52;101976.09;;;6.93;75.14
84316;BME280;74496;52.236;5.164;2024-02-28T06:11:18;101968.91;;;6.96;74.61
84316;BME280;74496;52.236;5.164;2024-02-28T06:13:45;101976.78;;;6.96;75.43
84316;BME280;74496;52.236;5.164;2024-02-28T06:16:15;101966.94;;;7.00;74.89
84316;BME280;74496;52.236;5.164;2024-02-28T06:18:43;101980.91;;;7.00;75.22
84316;BME280;74496;52.236;5.164;2024-02-28T06:21:09;101974.94;;;6.98;75.15
84316;BME280;74496;52.236;5.164;2024-02-28T06:23:37;101973.16;;;6.99;74.90
84316;BME280;74496;52.236;5.164;2024-02-28T06:26:04;101977.44;;;7.00;74.59
84316;BME280;74496;52.236;5.164;2024-02-28T06:28:31;101979.50;;;6.95;75.40
84316;BME280;74496;52.236;5.164;2024-02-28T06:30:58;101975.75;;;6.99;75.38
84316;BME280;74496;52.236;5.164;2024-02-28T06:33:25;101973.03;;;7.00;75.58
84316;BME280;74496;52.236;5.164;2024-02-28T06:35:52;101977.94;;;7.07;74.98
84316;BME280;74496;52.236;5.164;2024-02-28T06:38:19;102001.22;;;7.13;74.86
84316;BME280;74496;52.236;5.164;2024-02-28T06:40:47;102010.44;;;7.20;74.46
84316;BME280;74496;52.236;5.164;2024-02-28T06:43:13;102008.41;;;7.25;74.42
84316;BME280;74496;52.236;5.164;2024-02-28T06:45:41;101997.41;;;7.18;75.38
84316;BME280;74496;52.236;5.164;2024-02-28T06:48:08;102017.41;;;7.21;74.67
84316;BME280;74496;52.236;5.164;2024-02-28T06:50:34;102015.50;;;7.23;75.27
84316;BME280;74496;52.236;5.164;2024-02-28T06:53:01;102018.41;;;7.18;75.49
84316;BME280;74496;52.236;5.164;2024-02-28T06:55:29;102024.06;;;7.11;75.55
84316;BME280;74496;52.236;5.164;2024-02-28T06:57:57;102028.56;;;7.09;75.87
84316;BME280;74496;52.236;5.164;2024-02-28T07:00:23;102019.25;;;7.19;75.46
84316;BME280;74496;52.236;5.164;2024-02-28T07:02:50;102028.78;;;7.20;75.02
84316;BME280;74496;52.236;5.164;2024-02-28T07:05:18;102015.88;;;7.01;76.05
84316;BME280;74496;52.236;5.164;2024-02-28T07:07:45;102024.78;;;6.98;76.36
84316;BME280;74496;52.236;5.164;2024-02-28T07:10:12;102029.13;;;7.14;76.66
84316;BME280;74496;52.236;5.164;2024-02-28T07:12:39;102036.94;;;7.15;77.20
84316;BME280;74496;52.236;5.164;2024-02-28T07:15:07;102033.69;;;7.26;76.85
84316;BME280;74496;52.236;5.164;2024-02-28T07:17:34;102032.97;;;7.24;76.86
84316;BME280;74496;52.236;5.164;2024-02-28T07:20:01;102029.97;;;7.30;76.23
84316;BME280;74496;52.236;5.164;2024-02-28T07:22:27;102033.38;;;7.32;76.25
84316;BME280;74496;52.236;5.164;2024-02-28T07:24:54;102035.88;;;7.34;77.32
84316;BME280;74496;52.236;5.164;2024-02-28T07:27:22;102037.50;;;7.36;76.47
84316;BME280;74496;52.236;5.164;2024-02-28T07:29:48;102035.97;;;7.32;76.97
84316;BME280;74496;52.236;5.164;2024-02-28T07:32:16;102035.72;;;7.37;76.27
84316;BME280;74496;52.236;5.164;2024-02-28T07:34:43;102055.88;;;7.36;76.67
84316;BME280;74496;52.236;5.164;2024-02-28T07:37:10;102051.28;;;7.40;76.77
84316;BME280;74496;52.236;5.164;2024-02-28T07:39:37;102056.97;;;7.48;76.00
84316;BME280;74496;52.236;5.164;2024-02-28T07:42:04;102058.16;;;7.42;76.51
84316;BME280;74496;52.236;5.164;2024-02-28T07:44:31;102060.00;;;7.40;77.22
84316;BME280;74496;52.236;5.164;2024-02-28T07:46:58;102060.22;;;7.37;77.28
84316;BME280;74496;52.236;5.164;2024-02-28T07:49:26;102065.34;;;7.39;77.11
84316;BME280;74496;52.236;5.164;2024-02-28T07:51:53;102066.03;;;7.42;76.79
84316;BME280;74496;52.236;5.164;2024-02-28T07:54:20;102066.63;;;7.47;76.74
84316;BME280;74496;52.236;5.164;2024-02-28T07:56:47;102074.41;;;7.49;77.23
84316;BME280;74496;52.236;5.164;2024-02-28T07:59:13;102067.88;;;7.40;77.97
84316;BME280;74496;52.236;5.164;2024-02-28T08:01:40;102073.50;;;7.34;77.48
84316;BME280;74496;52.236;5.164;2024-02-28T08:04:07;102075.50;;;7.45;77.71
84316;BME280;74496;52.236;5.164;2024-02-28T08:06:35;102071.59;;;7.52;77.05
84316;BME280;74496;52.236;5.164;2024-02-28T08:09:02;102069.66;;;7.56;77.41
84316;BME280;74496;52.236;5.164;2024-02-28T08:11:29;102071.78;;;7.49;77.19
84316;BME280;74496;52.236;5.164;2024-02-28T08:13:56;102089.13;;;7.51;77.62
84316;BME280;74496;52.236;5.164;2024-02-28T08:16:23;102085.50;;;7.54;78.22
84316;BME280;74496;52.236;5.164;2024-02-28T08:18:50;102090.31;;;7.62;77.52
84316;BME280;74496;52.236;5.164;2024-02-28T08:21:16;102096.53;;;7.75;77.48
84316;BME280;74496;52.236;5.164;2024-02-28T08:23:45;102089.00;;;7.69;78.14
84316;BME280;74496;52.236;5.164;2024-02-28T08:26:13;102089.09;;;7.83;77.29
84316;BME280;74496;52.236;5.164;2024-02-28T08:28:39;102088.13;;;7.84;76.78
84316;BME280;74496;52.236;5.164;2024-02-28T08:31:06;102094.13;;;7.86;77.84
84316;BME280;74496;52.236;5.164;2024-02-28T08:33:33;102097.22;;;7.79;77.54
84316;BME280;74496;52.236;5.164;2024-02-28T08:35:59;102095.44;;;7.79;77.99
84316;BME280;74496;52.236;5.164;2024-02-28T08:38:26;102109.81;;;7.88;77.46
84316;BME280;74496;52.236;5.164;2024-02-28T08:40:54;102104.28;;;7.92;78.04
84316;BME280;74496;52.236;5.164;2024-02-28T08:43:21;102105.06;;;7.94;77.89
84316;BME280;74496;52.236;5.164;2024-02-28T08:45:48;102102.81;;;8.03;77.52
84316;BME280;74496;52.236;5.164;2024-02-28T08:48:17;102100.94;;;8.05;77.31
84316;BME280;74496;52.236;5.164;2024-02-28T08:50:43;102107.72;;;8.09;77.30
84316;BME280;74496;52.236;5.164;2024-02-28T08:53:10;102107.63;;;8.10;77.78
84316;BME280;74496;52.236;5.164;2024-02-28T08:55:37;102105.00;;;8.10;77.72
84316;BME280;74496;52.236;5.164;2024-02-28T08:58:05;102101.84;;;8.19;76.62
84316;BME280;74496;52.236;5.164;2024-02-28T09:00:32;102110.16;;;8.12;77.34
84316;BME280;74496;52.236;5.164;2024-02-28T09:02:59;102105.13;;;8.23;77.31
84316;BME280;74496;52.236;5.164;2024-02-28T09:05:27;102097.78;;;8.28;77.05
84316;BME280;74496;52.236;5.164;2024-02-28T09:07:54;102093.00;;;8.35;76.27
84316;BME280;74496;52.236;5.164;2024-02-28T09:10:21;102089.28;;;8.39;76.33
84316;BME280;74496;52.236;5.164;2024-02-28T09:12:49;102090.22;;;8.38;77.51
84316;BME280;74496;52.236;5.164;2024-02-28T09:15:17;102087.72;;;8.51;77.24
84316;BME280;74496;52.236;5.164;2024-02-28T09:17:44;102089.56;;;8.49;76.25
84316;BME280;74496;52.236;5.164;2024-02-28T09:20:11;102083.56;;;8.61;76.20
84316;BME280;74496;52.236;5.164;2024-02-28T09:22:38;102089.97;;;8.57;75.75
84316;BME280;74496;52.236;5.164;2024-02-28T09:25:06;102095.31;;;8.69;75.41
84316;BME280;74496;52.236;5.164;2024-02-28T09:27:34;102099.91;;;8.80;74.55
84316;BME280;74496;52.236;5.164;2024-02-28T09:30:01;102087.81;;;8.63;74.55
84316;BME280;74496;52.236;5.164;2024-02-28T09:32:29;102094.28;;;8.86;73.77
84316;BME280;74496;52.236;5.164;2024-02-28T09:34:56;102095.59;;;8.79;74.04
84316;BME280;74496;52.236;5.164;2024-02-28T09:37:23;102088.53;;;8.94;74.40
84316;BME280;74496;52.236;5.164;2024-02-28T09:39:50;102092.75;;;8.97;74.79
84316;BME280;74496;52.236;5.164;2024-02-28T09:42:18;102096.34;;;8.96;74.27
84316;BME280;74496;52.236;5.164;2024-02-28T09:44:45;102099.03;;;8.94;73.47
84316;BME280;74496;52.236;5.164;2024-02-28T09:47:13;102113.22;;;8.91;74.37
84316;BME280;74496;52.236;5.164;2024-02-28T09:49:45;102110.59;;;8.91;74.24
84316;BME280;74496;52.236;5.164;2024-02-28T09:52:15;102110.09;;;9.13;73.15
84316;BME280;74496;52.236;5.164;2024-02-28T09:54:42;102112.09;;;9.10;73.54
84316;BME280;74496;52.236;5.164;2024-02-28T09:57:11;102114.06;;;9.06;73.77
84316;BME280;74496;52.236;5.164;2024-02-28T09:59:39;102125.56;;;9.05;73.45
84316;BME280;74496;52.236;5.164;2024-02-28T10:02:09;102121.59;;;9.12;72.74
84316;BME280;74496;52.236;5.164;2024-02-28T10:04:36;102120.38;;;9.04;72.88
84316;BME280;74496;52.236;5.164;2024-02-28T10:07:12;102120.84;;;9.10;73.50
84316;BME280;74496;52.236;5.164;2024-02-28T10:09:39;102116.13;;;9.01;73.87
84316;BME280;74496;52.236;5.164;2024-02-28T10:12:06;102112.84;;;9.12;73.61
84316;BME280;74496;52.236;5.164;2024-02-28T10:14:33;102117.28;;;9.11;73.71
84316;BME280;74496;52.236;5.164;2024-02-28T10:17:00;102106.84;;;9.10;72.86
84316;BME280;74496;52.236;5.164;2024-02-28T10:19:27;102098.16;;;9.08;72.92
84316;BME280;74496;52.236;5.164;2024-02-28T10:21:54;102098.47;;;9.03;73.65
84316;BME280;74496;52.236;5.164;2024-02-28T10:24:24;102095.06;;;9.15;72.76
84316;BME280;74496;52.236;5.164;2024-02-28T10:26:50;102099.44;;;9.29;72.86
84316;BME280;74496;52.236;5.164;2024-02-28T10:29:22;102100.50;;;9.27;72.99
84316;BME280;74496;52.236;5.164;2024-02-28T10:31:48;102097.00;;;9.53;72.05
84316;BME280;74496;52.236;5.164;2024-02-28T10:34:16;102104.75;;;9.69;72.09
84316;BME280;74496;52.236;5.164;2024-02-28T10:36:44;102099.63;;;9.80;71.18
84316;BME280;74496;52.236;5.164;2024-02-28T10:39:12;102101.66;;;9.90;71.00
84316;BME280;74496;52.236;5.164;2024-02-28T10:41:40;102097.59;;;10.11;70.60
84316;BME280;74496;52.236;5.164;2024-02-28T10:44:07;102091.19;;;10.28;70.64
84316;BME280;74496;52.236;5.164;2024-02-28T10:46:37;102087.06;;;10.49;70.78
84316;BME280;74496;52.236;5.164;2024-02-28T10:49:04;102086.53;;;10.57;69.39
84316;BME280;74496;52.236;5.164;2024-02-28T10:51:34;102087.78;;;10.77;70.22
84316;BME280;74496;52.236;5.164;2024-02-28T10:54:07;102087.75;;;10.90;68.67
84316;BME280;74496;52.236;5.164;2024-02-28T10:56:37;102091.09;;;11.04;68.22
84316;BME280;74496;52.236;5.164;2024-02-28T10:59:08;102098.13;;;11.17;68.66
84316;BME280;74496;52.236;5.164;2024-02-28T11:01:35;102096.13;;;11.20;67.74
84316;BME280;74496;52.236;5.164;2024-02-28T11:04:04;102091.97;;;11.29;67.82
84316;BME280;74496;52.236;5.164;2024-02-28T11:06:32;102086.50;;;11.43;68.13
84316;BME280;74496;52.236;5.164;2024-02-28T11:09:00;102089.59;;;11.37;67.14
84316;BME280;74496;52.236;5.164;2024-02-28T11:11:30;102092.13;;;11.63;65.57
84316;BME280;74496;52.236;5.164;2024-02-28T11:13:58;102099.31;;;11.61;66.83
84316;BME280;74496;52.236;5.164;2024-02-28T11:16:29;102086.16;;;11.72;65.94
84316;BME280;74496;52.236;5.164;2024-02-28T11:18:56;102089.28;;;11.77;66.11
84316;BME280;74496;52.236;5.164;2024-02-28T11:21:24;102083.19;;;12.12;65.40
84316;BME280;74496;52.236;5.164;2024-02-28T11:23:52;102083.69;;;12.28;64.55
84316;BME280;74496;52.236;5.164;2024-02-28T11:26:23;102085.97;;;12.33;63.96
84316;BME280;74496;52.236;5.164;2024-02-28T11:28:50;102074.19;;;12.26;63.60
84316;BME280;74496;52.236;5.164;2024-02-28T11:31:17;102082.13;;;12.37;63.83
84316;BME280;74496;52.236;5.164;2024-02-28T11:33:45;102089.22;;;12.25;63.97
84316;BME280;74496;52.236;5.164;2024-02-28T11:36:12;102076.47;;;12.19;64.64
84316;BME280;74496;52.236;5.164;2024-02-28T11:38:39;102074.28;;;12.13;65.26
84316;BME280;74496;52.236;5.164;2024-02-28T11:41:07;102066.81;;;12.07;64.70
84316;BME280;74496;52.236;5.164;2024-02-28T11:43:34;102067.78;;;12.17;64.95
84316;BME280;74496;52.236;5.164;2024-02-28T11:46:01;102062.72;;;12.14;64.61
84316;BME280;74496;52.236;5.164;2024-02-28T11:48:29;102066.94;;;12.05;64.79
84316;BME280;74496;52.236;5.164;2024-02-28T11:50:57;102062.50;;;12.06;65.52
84316;BME280;74496;52.236;5.164;2024-02-28T11:53:24;102064.69;;;12.12;65.41
84316;BME280;74496;52.236;5.164;2024-02-28T11:55:52;102063.94;;;12.10;65.03
84316;BME280;74496;52.236;5.164;2024-02-28T11:58:18;102059.75;;;12.18;64.96
84316;BME280;74496;52.236;5.164;2024-02-28T12:00:47;102057.13;;;12.41;64.56
84316;BME280;74496;52.236;5.164;2024-02-28T12:03:14;102066.41;;;12.58;64.40
84316;BME280;74496;52.236;5.164;2024-02-28T12:05:43;102056.28;;;12.74;63.42
84316;BME280;74496;52.236;5.164;2024-02-28T12:08:11;102051.13;;;12.61;64.07
84316;BME280;74496;52.236;5.164;2024-02-28T12:10:38;102050.28;;;13.15;62.89
84316;BME280;74496;52.236;5.164;2024-02-28T12:13:05;102056.50;;;12.82;63.44
84316;BME280;74496;52.236;5.164;2024-02-28T12:15:33;102056.84;;;12.89;63.18
84316;BME280;74496;52.236;5.164;2024-02-28T12:17:59;102051.94;;;12.84;63.56
84316;BME280;74496;52.236;5.164;2024-02-28T12:20:26;102055.44;;;12.74;63.62
84316;BME280;74496;52.236;5.164;2024-02-28T12:22:53;102051.94;;;12.73;63.49
84316;BME280;74496;52.236;5.164;2024-02-28T12:25:21;102050.97;;;12.74;63.53
84316;BME280;74496;52.236;5.164;2024-02-28T12:27:47;102056.66;;;12.47;63.61
84316;BME280;74496;52.236;5.164;2024-02-28T12:30:14;102051.47;;;12.34;64.46
84316;BME280;74496;52.236;5.164;2024-02-28T12:32:41;102044.97;;;12.38;63.88
84316;BME280;74496;52.236;5.164;2024-02-28T12:35:08;102040.63;;;12.26;64.16
84316;BME280;74496;52.236;5.164;2024-02-28T12:37:35;102035.34;;;12.26;64.64
84316;BME280;74496;52.236;5.164;2024-02-28T12:40:01;102039.66;;;12.27;64.86
84316;BME280;74496;52.236;5.164;2024-02-28T12:42:31;102041.25;;;12.18;64.82
84316;BME280;74496;52.236;5.164;2024-02-28T12:44:58;102033.41;;;12.06;64.69
84316;BME280;74496;52.236;5.164;2024-02-28T12:47:25;102039.84;;;11.90;65.27
84316;BME280;74496;52.236;5.164;2024-02-28T12:49:52;102043.47;;;11.89;65.31
84316;BME280;74496;52.236;5.164;2024-02-28T12:52:18;102041.34;;;11.94;65.77
84316;BME280;74496;52.236;5.164;2024-02-28T12:54:45;102043.47;;;11.89;66.58
84316;BME280;74496;52.236;5.164;2024-02-28T12:57:12;102035.31;;;11.92;65.72